This is the latest recevied weather packets stored in our database for station/object PU5FJO-13. If no packets are shown the sender has not sent any weather packets the latest 10 day(s).
| Time | Temp. | Humidity | Pressure | Rain* | Wind** | Luminosity | Snow |
|---|---|---|---|---|---|---|---|
| 1778073374 | 23.89° C | 77% | 1020.5 hPa | - | - | - | - |
| 1778072774 | 23.33° C | 77% | 1020.6 hPa | - | - | - | - |
| 1778072174 | 23.33° C | 79% | 1020.5 hPa | - | - | - | - |
| 1778071574 | 23.33° C | 81% | 1020.5 hPa | - | - | - | - |
| 1778070974 | 22.78° C | 82% | 1020.4 hPa | - | - | - | - |
| 1778070374 | 22.22° C | 83% | 1020.4 hPa | - | - | - | - |
| 1778069775 | 22.22° C | 83% | 1020.3 hPa | - | - | - | - |
| 1778069174 | 22.22° C | 85% | 1020.3 hPa | - | - | - | - |
| 1778068574 | 21.67° C | 86% | 1020.4 hPa | - | - | - | - |
| 1778067974 | 21.67° C | 86% | 1020.4 hPa | - | - | - | - |
| 1778067374 | 21.67° C | 86% | 1020.3 hPa | - | - | - | - |
| 1778066774 | 21.11° C | 86% | 1020.4 hPa | - | - | - | - |
| 1778066174 | 20.56° C | 86% | 1020.2 hPa | - | - | - | - |
| 1778065574 | 20° C | 86% | 1020.4 hPa | - | - | - | - |
| 1778064974 | 20° C | 81% | 1020.4 hPa | - | - | - | - |
| 1778064374 | 19.44° C | 83% | 1020.2 hPa | - | - | - | - |
| 1778063774 | 20° C | 82% | 1020.3 hPa | - | - | - | - |
| 1778063174 | 19.44° C | 82% | 1020.2 hPa | - | - | - | - |
| 1778062574 | 17.78° C | 87% | 1020.2 hPa | - | - | - | - |
| 1778061974 | 20.56° C | 77% | 1019.9 hPa | - | - | - | - |
| 1778061374 | 20° C | 80% | 1019.8 hPa | - | - | - | - |
| 1778060774 | 19.44° C | 81% | 1019.7 hPa | - | - | - | - |
| 1778060174 | 18.89° C | 85% | 1019.6 hPa | - | - | - | - |
| 1778059574 | 19.44° C | 82% | 1019.5 hPa | - | - | - | - |
| 1778058974 | 18.89° C | 84% | 1019.4 hPa | - | - | - | - |
* Rain since midnight (hover to see other rain measurements)
** Current wind speed in m/s (hover to see current wind gust speed)